Terminal Aerodrome Forecast
Issued by NWS

Home | Current Version | Previous Version | Text Only | Print | Product List | Glossary On
Versions: 1 2 3 4 5 6 7 8 9 10 11 12 13 14 15 16 17 18 19 20 21 22 23 24 25 26 27 28 29 30 31 32 33 34 35 36 37 38 39 40
000
FTAK31 PANC 260539
TAFADQ
TAF
PADQ 260539Z 2606/2706 29005KT P6SM VCSH SCT025 BKN040
      TEMPO 2606/2610 5SM -SHRA BKN030
     FM261700 11005KT P6SM FEW020 BKN040
     FM270500 25006KT P6SM FEW020 BKN040=

USA.gov is the U.S. government's official web portal to all federal, state and local government web resources and services.